sensor_id;sensor_type;location;lat;lon;timestamp;P1;durP1;ratioP1;P2;durP2;ratioP2
19285;SDS011;9776;50.798;6.430;2023-03-23T00:00:55;1.05;;;1.05;;
19285;SDS011;9776;50.798;6.430;2023-03-23T00:03:21;1.00;;;1.00;;
19285;SDS011;9776;50.798;6.430;2023-03-23T00:05:50;1.30;;;1.30;;
19285;SDS011;9776;50.798;6.430;2023-03-23T00:08:19;1.20;;;1.20;;
19285;SDS011;9776;50.798;6.430;2023-03-23T00:10:48;1.20;;;1.20;;
19285;SDS011;9776;50.798;6.430;2023-03-23T00:13:17;1.10;;;1.10;;
19285;SDS011;9776;50.798;6.430;2023-03-23T00:15:45;1.15;;;1.15;;
19285;SDS011;9776;50.798;6.430;2023-03-23T00:18:13;1.08;;;1.08;;
19285;SDS011;9776;50.798;6.430;2023-03-23T00:20:46;1.38;;;1.27;;
19285;SDS011;9776;50.798;6.430;2023-03-23T00:23:14;1.40;;;1.30;;
19285;SDS011;9776;50.798;6.430;2023-03-23T00:25:47;2.78;;;1.27;;
19285;SDS011;9776;50.798;6.430;2023-03-23T00:28:15;1.27;;;1.27;;
19285;SDS011;9776;50.798;6.430;2023-03-23T00:30:42;1.48;;;1.40;;
19285;SDS011;9776;50.798;6.430;2023-03-23T00:33:09;1.55;;;1.45;;
19285;SDS011;9776;50.798;6.430;2023-03-23T00:35:37;1.08;;;1.08;;
19285;SDS011;9776;50.798;6.430;2023-03-23T00:38:04;1.33;;;1.30;;
19285;SDS011;9776;50.798;6.430;2023-03-23T00:40:31;1.05;;;1.05;;
19285;SDS011;9776;50.798;6.430;2023-03-23T00:43:01;1.30;;;1.25;;
19285;SDS011;9776;50.798;6.430;2023-03-23T00:45:29;1.15;;;1.15;;
19285;SDS011;9776;50.798;6.430;2023-03-23T00:47:56;1.27;;;1.27;;
19285;SDS011;9776;50.798;6.430;2023-03-23T00:50:27;1.10;;;1.10;;
19285;SDS011;9776;50.798;6.430;2023-03-23T00:52:54;1.10;;;1.10;;
19285;SDS011;9776;50.798;6.430;2023-03-23T00:55:22;1.00;;;1.00;;
19285;SDS011;9776;50.798;6.430;2023-03-23T00:57:49;1.00;;;1.00;;
19285;SDS011;9776;50.798;6.430;2023-03-23T01:00:18;1.00;;;1.00;;
19285;SDS011;9776;50.798;6.430;2023-03-23T01:02:45;1.08;;;1.08;;
19285;SDS011;9776;50.798;6.430;2023-03-23T01:05:12;1.00;;;1.00;;
19285;SDS011;9776;50.798;6.430;2023-03-23T01:07:40;1.15;;;1.05;;
19285;SDS011;9776;50.798;6.430;2023-03-23T01:10:07;1.23;;;1.13;;
19285;SDS011;9776;50.798;6.430;2023-03-23T01:12:34;1.27;;;1.17;;
19285;SDS011;9776;50.798;6.430;2023-03-23T01:15:01;1.20;;;1.20;;
19285;SDS011;9776;50.798;6.430;2023-03-23T01:17:29;1.08;;;1.08;;
19285;SDS011;9776;50.798;6.430;2023-03-23T01:19:55;1.30;;;1.20;;
19285;SDS011;9776;50.798;6.430;2023-03-23T01:22:22;1.33;;;1.23;;
19285;SDS011;9776;50.798;6.430;2023-03-23T01:24:48;1.10;;;1.10;;
19285;SDS011;9776;50.798;6.430;2023-03-23T01:27:15;1.25;;;1.23;;
19285;SDS011;9776;50.798;6.430;2023-03-23T01:29:42;1.30;;;1.30;;
19285;SDS011;9776;50.798;6.430;2023-03-23T01:32:08;1.20;;;1.20;;
19285;SDS011;9776;50.798;6.430;2023-03-23T01:34:37;1.33;;;1.23;;
19285;SDS011;9776;50.798;6.430;2023-03-23T01:37:03;1.25;;;1.20;;
19285;SDS011;9776;50.798;6.430;2023-03-23T01:39:30;1.45;;;1.35;;
19285;SDS011;9776;50.798;6.430;2023-03-23T01:41:56;1.38;;;1.27;;
19285;SDS011;9776;50.798;6.430;2023-03-23T01:47:41;1.10;;;1.10;;
19285;SDS011;9776;50.798;6.430;2023-03-23T01:50:09;1.35;;;1.27;;
19285;SDS011;9776;50.798;6.430;2023-03-23T01:52:35;1.10;;;1.10;;
19285;SDS011;9776;50.798;6.430;2023-03-23T01:55:02;1.08;;;1.08;;
19285;SDS011;9776;50.798;6.430;2023-03-23T01:57:30;1.13;;;1.13;;
19285;SDS011;9776;50.798;6.430;2023-03-23T01:59:58;1.20;;;1.20;;
19285;SDS011;9776;50.798;6.430;2023-03-23T02:02:33;1.10;;;1.10;;
19285;SDS011;9776;50.798;6.430;2023-03-23T02:05:02;1.20;;;1.20;;
19285;SDS011;9776;50.798;6.430;2023-03-23T02:07:36;1.23;;;1.23;;
19285;SDS011;9776;50.798;6.430;2023-03-23T02:10:03;1.00;;;1.00;;
19285;SDS011;9776;50.798;6.430;2023-03-23T02:12:31;1.20;;;1.20;;
19285;SDS011;9776;50.798;6.430;2023-03-23T02:14:58;1.00;;;1.00;;
19285;SDS011;9776;50.798;6.430;2023-03-23T02:17:26;1.10;;;1.10;;
19285;SDS011;9776;50.798;6.430;2023-03-23T02:20:05;1.13;;;1.10;;
19285;SDS011;9776;50.798;6.430;2023-03-23T02:22:54;0.90;;;0.90;;
19285;SDS011;9776;50.798;6.430;2023-03-23T02:25:45;1.00;;;1.00;;
19285;SDS011;9776;50.798;6.430;2023-03-23T02:28:38;1.10;;;1.10;;
19285;SDS011;9776;50.798;6.430;2023-03-23T02:31:21;1.02;;;1.02;;
19285;SDS011;9776;50.798;6.430;2023-03-23T02:34:06;1.13;;;1.13;;
19285;SDS011;9776;50.798;6.430;2023-03-23T02:36:39;1.20;;;1.20;;
19285;SDS011;9776;50.798;6.430;2023-03-23T02:39:12;1.20;;;1.20;;
19285;SDS011;9776;50.798;6.430;2023-03-23T02:41:45;1.10;;;1.10;;
19285;SDS011;9776;50.798;6.430;2023-03-23T02:44:15;1.20;;;1.20;;
19285;SDS011;9776;50.798;6.430;2023-03-23T02:46:43;1.20;;;1.20;;
19285;SDS011;9776;50.798;6.430;2023-03-23T02:49:12;1.27;;;1.27;;
19285;SDS011;9776;50.798;6.430;2023-03-23T02:51:42;1.10;;;1.10;;
19285;SDS011;9776;50.798;6.430;2023-03-23T02:54:12;1.13;;;1.13;;
19285;SDS011;9776;50.798;6.430;2023-03-23T02:56:41;1.35;;;1.27;;
19285;SDS011;9776;50.798;6.430;2023-03-23T02:59:08;1.02;;;1.02;;
19285;SDS011;9776;50.798;6.430;2023-03-23T03:01:45;1.25;;;1.25;;
19285;SDS011;9776;50.798;6.430;2023-03-23T03:04:21;1.00;;;1.00;;
19285;SDS011;9776;50.798;6.430;2023-03-23T03:06:54;1.40;;;1.40;;
19285;SDS011;9776;50.798;6.430;2023-03-23T03:09:36;1.50;;;1.40;;
19285;SDS011;9776;50.798;6.430;2023-03-23T03:12:09;1.05;;;1.05;;
19285;SDS011;9776;50.798;6.430;2023-03-23T03:14:44;1.23;;;1.23;;
19285;SDS011;9776;50.798;6.430;2023-03-23T03:17:17;1.20;;;1.20;;
19285;SDS011;9776;50.798;6.430;2023-03-23T03:19:50;1.50;;;1.35;;
19285;SDS011;9776;50.798;6.430;2023-03-23T03:22:22;1.20;;;1.20;;
19285;SDS011;9776;50.798;6.430;2023-03-23T03:24:53;1.10;;;1.10;;
19285;SDS011;9776;50.798;6.430;2023-03-23T03:27:22;1.38;;;1.33;;
19285;SDS011;9776;50.798;6.430;2023-03-23T03:29:51;1.13;;;1.13;;
19285;SDS011;9776;50.798;6.430;2023-03-23T03:32:22;1.20;;;1.20;;
19285;SDS011;9776;50.798;6.430;2023-03-23T03:34:54;1.23;;;1.23;;
19285;SDS011;9776;50.798;6.430;2023-03-23T03:37:20;1.10;;;1.10;;
19285;SDS011;9776;50.798;6.430;2023-03-23T03:39:47;1.45;;;1.45;;
19285;SDS011;9776;50.798;6.430;2023-03-23T03:42:14;1.42;;;1.40;;
19285;SDS011;9776;50.798;6.430;2023-03-23T03:44:41;1.20;;;1.20;;
19285;SDS011;9776;50.798;6.430;2023-03-23T03:47:07;1.23;;;1.23;;
19285;SDS011;9776;50.798;6.430;2023-03-23T03:49:34;1.10;;;1.10;;
19285;SDS011;9776;50.798;6.430;2023-03-23T03:52:02;1.30;;;1.30;;
19285;SDS011;9776;50.798;6.430;2023-03-23T03:54:29;1.13;;;1.13;;
19285;SDS011;9776;50.798;6.430;2023-03-23T03:56:56;1.20;;;1.20;;
19285;SDS011;9776;50.798;6.430;2023-03-23T03:59:22;1.40;;;1.30;;
19285;SDS011;9776;50.798;6.430;2023-03-23T04:01:50;1.30;;;1.30;;
19285;SDS011;9776;50.798;6.430;2023-03-23T04:04:19;1.13;;;1.13;;
19285;SDS011;9776;50.798;6.430;2023-03-23T04:06:47;1.40;;;1.30;;
19285;SDS011;9776;50.798;6.430;2023-03-23T04:09:15;1.52;;;1.42;;
19285;SDS011;9776;50.798;6.430;2023-03-23T04:11:42;1.30;;;1.30;;
19285;SDS011;9776;50.798;6.430;2023-03-23T04:14:09;1.30;;;1.30;;
19285;SDS011;9776;50.798;6.430;2023-03-23T04:16:36;1.17;;;1.17;;
19285;SDS011;9776;50.798;6.430;2023-03-23T04:19:02;1.30;;;1.30;;
19285;SDS011;9776;50.798;6.430;2023-03-23T04:21:30;1.50;;;1.40;;
19285;SDS011;9776;50.798;6.430;2023-03-23T04:23:57;1.58;;;1.48;;
19285;SDS011;9776;50.798;6.430;2023-03-23T04:26:26;1.38;;;1.27;;
19285;SDS011;9776;50.798;6.430;2023-03-23T04:28:54;1.30;;;1.20;;
19285;SDS011;9776;50.798;6.430;2023-03-23T04:31:21;1.35;;;1.25;;
19285;SDS011;9776;50.798;6.430;2023-03-23T04:33:49;1.50;;;1.40;;
19285;SDS011;9776;50.798;6.430;2023-03-23T04:36:18;1.30;;;1.20;;
19285;SDS011;9776;50.798;6.430;2023-03-23T04:38:47;1.42;;;1.33;;
19285;SDS011;9776;50.798;6.430;2023-03-23T04:41:19;1.30;;;1.30;;
19285;SDS011;9776;50.798;6.430;2023-03-23T04:43:48;1.20;;;1.20;;
19285;SDS011;9776;50.798;6.430;2023-03-23T04:46:18;1.25;;;1.20;;
19285;SDS011;9776;50.798;6.430;2023-03-23T04:48:46;1.63;;;1.52;;
19285;SDS011;9776;50.798;6.430;2023-03-23T04:51:13;1.50;;;1.40;;
19285;SDS011;9776;50.798;6.430;2023-03-23T04:53:40;1.20;;;1.20;;
19285;SDS011;9776;50.798;6.430;2023-03-23T04:56:07;1.23;;;1.17;;
19285;SDS011;9776;50.798;6.430;2023-03-23T04:58:33;1.33;;;1.30;;
19285;SDS011;9776;50.798;6.430;2023-03-23T05:01:01;1.25;;;1.15;;
19285;SDS011;9776;50.798;6.430;2023-03-23T05:03:30;1.55;;;1.45;;
19285;SDS011;9776;50.798;6.430;2023-03-23T05:05:57;1.13;;;1.13;;
19285;SDS011;9776;50.798;6.430;2023-03-23T05:08:23;1.35;;;1.25;;
19285;SDS011;9776;50.798;6.430;2023-03-23T05:10:50;1.35;;;1.17;;
19285;SDS011;9776;50.798;6.430;2023-03-23T05:13:18;1.38;;;1.27;;
19285;SDS011;9776;50.798;6.430;2023-03-23T05:15:45;1.40;;;1.30;;
19285;SDS011;9776;50.798;6.430;2023-03-23T05:18:13;1.15;;;1.05;;
19285;SDS011;9776;50.798;6.430;2023-03-23T05:20:40;1.80;;;1.30;;
19285;SDS011;9776;50.798;6.430;2023-03-23T05:23:07;1.27;;;1.23;;
19285;SDS011;9776;50.798;6.430;2023-03-23T05:25:34;1.40;;;1.30;;
19285;SDS011;9776;50.798;6.430;2023-03-23T05:28:05;1.40;;;1.30;;
19285;SDS011;9776;50.798;6.430;2023-03-23T05:30:32;1.17;;;1.17;;
19285;SDS011;9776;50.798;6.430;2023-03-23T05:33:00;1.30;;;1.20;;
19285;SDS011;9776;50.798;6.430;2023-03-23T05:35:28;1.48;;;1.38;;
19285;SDS011;9776;50.798;6.430;2023-03-23T05:37:55;1.23;;;1.10;;
19285;SDS011;9776;50.798;6.430;2023-03-23T05:40:23;1.40;;;1.30;;
19285;SDS011;9776;50.798;6.430;2023-03-23T05:42:50;1.45;;;1.27;;
19285;SDS011;9776;50.798;6.430;2023-03-23T05:45:20;1.15;;;1.10;;
19285;SDS011;9776;50.798;6.430;2023-03-23T05:47:48;1.27;;;1.17;;
19285;SDS011;9776;50.798;6.430;2023-03-23T05:50:15;2.50;;;1.40;;
19285;SDS011;9776;50.798;6.430;2023-03-23T05:52:44;1.70;;;1.60;;
19285;SDS011;9776;50.798;6.430;2023-03-23T05:55:11;1.55;;;1.45;;
19285;SDS011;9776;50.798;6.430;2023-03-23T05:57:39;1.40;;;1.30;;
19285;SDS011;9776;50.798;6.430;2023-03-23T06:00:06;1.48;;;1.38;;
19285;SDS011;9776;50.798;6.430;2023-03-23T06:02:45;1.63;;;1.50;;
19285;SDS011;9776;50.798;6.430;2023-03-23T06:05:13;1.35;;;1.25;;
19285;SDS011;9776;50.798;6.430;2023-03-23T06:07:40;1.42;;;1.33;;
19285;SDS011;9776;50.798;6.430;2023-03-23T06:10:09;3.15;;;1.42;;
19285;SDS011;9776;50.798;6.430;2023-03-23T06:12:36;1.30;;;1.20;;
19285;SDS011;9776;50.798;6.430;2023-03-23T06:15:04;1.23;;;1.17;;
19285;SDS011;9776;50.798;6.430;2023-03-23T06:17:31;1.48;;;1.20;;
19285;SDS011;9776;50.798;6.430;2023-03-23T06:19:58;1.33;;;1.23;;
19285;SDS011;9776;50.798;6.430;2023-03-23T06:22:25;1.33;;;1.23;;
19285;SDS011;9776;50.798;6.430;2023-03-23T06:24:52;1.63;;;1.10;;
19285;SDS011;9776;50.798;6.430;2023-03-23T06:27:23;1.30;;;1.20;;
19285;SDS011;9776;50.798;6.430;2023-03-23T06:29:50;1.45;;;1.27;;
19285;SDS011;9776;50.798;6.430;2023-03-23T06:32:16;1.30;;;1.20;;
19285;SDS011;9776;50.798;6.430;2023-03-23T06:34:43;1.35;;;1.25;;
19285;SDS011;9776;50.798;6.430;2023-03-23T06:37:11;1.10;;;1.10;;
19285;SDS011;9776;50.798;6.430;2023-03-23T06:39:38;1.10;;;1.10;;
19285;SDS011;9776;50.798;6.430;2023-03-23T06:42:08;1.27;;;1.17;;
19285;SDS011;9776;50.798;6.430;2023-03-23T06:44:36;1.40;;;1.30;;
19285;SDS011;9776;50.798;6.430;2023-03-23T06:47:04;1.25;;;1.20;;
19285;SDS011;9776;50.798;6.430;2023-03-23T06:49:31;1.10;;;1.10;;
19285;SDS011;9776;50.798;6.430;2023-03-23T06:51:58;1.30;;;1.20;;
19285;SDS011;9776;50.798;6.430;2023-03-23T06:54:26;1.23;;;1.20;;
19285;SDS011;9776;50.798;6.430;2023-03-23T06:56:53;1.00;;;1.00;;
19285;SDS011;9776;50.798;6.430;2023-03-23T06:59:20;1.10;;;1.08;;
19285;SDS011;9776;50.798;6.430;2023-03-23T07:01:48;1.25;;;1.15;;
19285;SDS011;9776;50.798;6.430;2023-03-23T07:04:15;1.20;;;1.10;;
19285;SDS011;9776;50.798;6.430;2023-03-23T07:06:42;1.67;;;1.10;;
19285;SDS011;9776;50.798;6.430;2023-03-23T07:09:08;1.15;;;1.05;;
19285;SDS011;9776;50.798;6.430;2023-03-23T07:11:35;1.13;;;1.02;;
19285;SDS011;9776;50.798;6.430;2023-03-23T07:14:02;1.40;;;1.30;;
19285;SDS011;9776;50.798;6.430;2023-03-23T07:16:29;1.40;;;1.30;;
19285;SDS011;9776;50.798;6.430;2023-03-23T07:18:58;1.23;;;1.13;;
19285;SDS011;9776;50.798;6.430;2023-03-23T07:21:25;1.50;;;1.40;;
19285;SDS011;9776;50.798;6.430;2023-03-23T07:23:51;1.50;;;1.40;;
19285;SDS011;9776;50.798;6.430;2023-03-23T07:26:18;1.30;;;1.20;;
19285;SDS011;9776;50.798;6.430;2023-03-23T07:28:45;1.33;;;1.23;;
19285;SDS011;9776;50.798;6.430;2023-03-23T07:31:12;1.13;;;1.08;;
19285;SDS011;9776;50.798;6.430;2023-03-23T07:33:38;1.20;;;1.10;;
19285;SDS011;9776;50.798;6.430;2023-03-23T07:36:07;1.27;;;1.17;;
19285;SDS011;9776;50.798;6.430;2023-03-23T07:38:34;1.40;;;1.20;;
19285;SDS011;9776;50.798;6.430;2023-03-23T07:41:02;1.25;;;1.15;;
19285;SDS011;9776;50.798;6.430;2023-03-23T07:43:28;1.23;;;1.13;;
19285;SDS011;9776;50.798;6.430;2023-03-23T07:45:55;1.35;;;1.25;;
19285;SDS011;9776;50.798;6.430;2023-03-23T07:48:22;1.98;;;1.42;;
19285;SDS011;9776;50.798;6.430;2023-03-23T07:50:49;1.02;;;0.93;;
19285;SDS011;9776;50.798;6.430;2023-03-23T07:53:17;1.30;;;1.20;;
19285;SDS011;9776;50.798;6.430;2023-03-23T07:55:44;1.45;;;1.35;;
19285;SDS011;9776;50.798;6.430;2023-03-23T07:58:10;1.48;;;1.27;;
19285;SDS011;9776;50.798;6.430;2023-03-23T08:00:41;1.40;;;1.30;;
19285;SDS011;9776;50.798;6.430;2023-03-23T08:03:09;1.38;;;1.27;;
19285;SDS011;9776;50.798;6.430;2023-03-23T08:05:35;1.20;;;1.10;;
19285;SDS011;9776;50.798;6.430;2023-03-23T08:08:02;1.30;;;1.20;;
19285;SDS011;9776;50.798;6.430;2023-03-23T08:10:31;1.67;;;1.20;;
19285;SDS011;9776;50.798;6.430;2023-03-23T08:12:57;1.42;;;1.08;;
19285;SDS011;9776;50.798;6.430;2023-03-23T08:15:24;1.45;;;1.20;;
19285;SDS011;9776;50.798;6.430;2023-03-23T08:17:52;1.25;;;1.15;;
19285;SDS011;9776;50.798;6.430;2023-03-23T08:20:19;1.40;;;1.30;;
19285;SDS011;9776;50.798;6.430;2023-03-23T08:22:50;1.85;;;1.23;;
19285;SDS011;9776;50.798;6.430;2023-03-23T08:25:18;1.27;;;1.17;;
19285;SDS011;9776;50.798;6.430;2023-03-23T08:27:47;1.35;;;1.25;;
19285;SDS011;9776;50.798;6.430;2023-03-23T08:30:15;1.23;;;1.00;;
19285;SDS011;9776;50.798;6.430;2023-03-23T08:32:44;1.13;;;1.02;;
19285;SDS011;9776;50.798;6.430;2023-03-23T08:35:11;1.38;;;1.20;;
19285;SDS011;9776;50.798;6.430;2023-03-23T08:37:39;0.90;;;0.90;;
19285;SDS011;9776;50.798;6.430;2023-03-23T08:40:11;1.45;;;1.10;;
19285;SDS011;9776;50.798;6.430;2023-03-23T08:42:39;1.27;;;1.17;;
19285;SDS011;9776;50.798;6.430;2023-03-23T08:45:10;2.08;;;1.13;;
19285;SDS011;9776;50.798;6.430;2023-03-23T08:47:38;1.17;;;1.00;;
19285;SDS011;9776;50.798;6.430;2023-03-23T08:50:06;1.58;;;1.02;;
19285;SDS011;9776;50.798;6.430;2023-03-23T08:52:33;1.17;;;1.10;;
19285;SDS011;9776;50.798;6.430;2023-03-23T08:55:00;1.40;;;1.30;;
19285;SDS011;9776;50.798;6.430;2023-03-23T08:57:28;1.13;;;1.02;;
19285;SDS011;9776;50.798;6.430;2023-03-23T08:59:55;1.20;;;1.00;;
19285;SDS011;9776;50.798;6.430;2023-03-23T09:02:26;1.20;;;1.10;;
19285;SDS011;9776;50.798;6.430;2023-03-23T09:04:56;1.20;;;1.00;;
19285;SDS011;9776;50.798;6.430;2023-03-23T09:07:22;1.65;;;1.15;;
19285;SDS011;9776;50.798;6.430;2023-03-23T09:09:49;1.40;;;1.10;;
19285;SDS011;9776;50.798;6.430;2023-03-23T09:12:16;1.55;;;1.42;;
19285;SDS011;9776;50.798;6.430;2023-03-23T09:14:43;1.23;;;1.13;;
19285;SDS011;9776;50.798;6.430;2023-03-23T09:17:10;1.40;;;1.30;;
19285;SDS011;9776;50.798;6.430;2023-03-23T09:19:38;1.30;;;1.20;;
19285;SDS011;9776;50.798;6.430;2023-03-23T09:22:05;1.33;;;1.10;;
19285;SDS011;9776;50.798;6.430;2023-03-23T09:24:31;1.20;;;1.10;;
19285;SDS011;9776;50.798;6.430;2023-03-23T09:26:58;1.33;;;1.10;;
19285;SDS011;9776;50.798;6.430;2023-03-23T09:29:25;0.85;;;0.85;;
19285;SDS011;9776;50.798;6.430;2023-03-23T09:31:51;1.67;;;1.10;;
19285;SDS011;9776;50.798;6.430;2023-03-23T09:34:18;1.10;;;1.00;;
19285;SDS011;9776;50.798;6.430;2023-03-23T09:36:47;1.27;;;1.17;;
19285;SDS011;9776;50.798;6.430;2023-03-23T09:39:14;1.10;;;1.00;;
19285;SDS011;9776;50.798;6.430;2023-03-23T09:41:49;2.78;;;1.30;;
19285;SDS011;9776;50.798;6.430;2023-03-23T09:44:41;1.27;;;1.02;;
19285;SDS011;9776;50.798;6.430;2023-03-23T09:47:18;1.17;;;1.08;;
19285;SDS011;9776;50.798;6.430;2023-03-23T09:49:50;1.30;;;1.20;;
19285;SDS011;9776;50.798;6.430;2023-03-23T09:52:21;1.13;;;0.95;;
19285;SDS011;9776;50.798;6.430;2023-03-23T09:54:49;0.90;;;0.90;;
19285;SDS011;9776;50.798;6.430;2023-03-23T09:57:19;1.17;;;0.80;;
19285;SDS011;9776;50.798;6.430;2023-03-23T09:59:54;1.10;;;1.00;;
19285;SDS011;9776;50.798;6.430;2023-03-23T10:02:27;0.82;;;0.82;;
19285;SDS011;9776;50.798;6.430;2023-03-23T10:05:03;0.85;;;0.73;;
19285;SDS011;9776;50.798;6.430;2023-03-23T10:07:50;1.05;;;0.95;;
19285;SDS011;9776;50.798;6.430;2023-03-23T10:10:17;0.70;;;0.70;;
19285;SDS011;9776;50.798;6.430;2023-03-23T10:12:47;0.70;;;0.70;;
19285;SDS011;9776;50.798;6.430;2023-03-23T10:15:17;0.70;;;0.70;;
19285;SDS011;9776;50.798;6.430;2023-03-23T10:17:51;2.42;;;0.80;;
19285;SDS011;9776;50.798;6.430;2023-03-23T10:20:21;2.97;;;0.77;;
19285;SDS011;9776;50.798;6.430;2023-03-23T10:22:58;0.88;;;0.75;;
19285;SDS011;9776;50.798;6.430;2023-03-23T10:25:32;0.70;;;0.70;;
19285;SDS011;9776;50.798;6.430;2023-03-23T10:28:04;0.77;;;0.77;;
19285;SDS011;9776;50.798;6.430;2023-03-23T10:30:38;0.80;;;0.80;;
19285;SDS011;9776;50.798;6.430;2023-03-23T10:33:08;0.73;;;0.70;;
19285;SDS011;9776;50.798;6.430;2023-03-23T10:35:42;0.70;;;0.70;;
19285;SDS011;9776;50.798;6.430;2023-03-23T10:38:13;0.82;;;0.70;;
19285;SDS011;9776;50.798;6.430;2023-03-23T10:40:48;1.10;;;0.80;;
19285;SDS011;9776;50.798;6.430;2023-03-23T10:43:17;0.75;;;0.75;;
19285;SDS011;9776;50.798;6.430;2023-03-23T10:45:44;0.80;;;0.80;;
19285;SDS011;9776;50.798;6.430;2023-03-23T10:48:14;0.70;;;0.70;;
19285;SDS011;9776;50.798;6.430;2023-03-23T10:50:46;0.68;;;0.68;;
19285;SDS011;9776;50.798;6.430;2023-03-23T10:53:26;0.70;;;0.70;;
19285;SDS011;9776;50.798;6.430;2023-03-23T10:55:58;0.60;;;0.60;;
19285;SDS011;9776;50.798;6.430;2023-03-23T10:58:25;0.70;;;0.70;;
19285;SDS011;9776;50.798;6.430;2023-03-23T11:00:55;0.70;;;0.70;;
19285;SDS011;9776;50.798;6.430;2023-03-23T11:03:24;3.22;;;0.82;;
19285;SDS011;9776;50.798;6.430;2023-03-23T11:05:55;0.80;;;0.80;;
19285;SDS011;9776;50.798;6.430;2023-03-23T11:08:25;0.98;;;0.98;;
19285;SDS011;9776;50.798;6.430;2023-03-23T11:10:56;1.27;;;1.20;;
19285;SDS011;9776;50.798;6.430;2023-03-23T11:13:37;0.95;;;0.90;;
19285;SDS011;9776;50.798;6.430;2023-03-23T11:16:07;0.65;;;0.65;;
19285;SDS011;9776;50.798;6.430;2023-03-23T11:18:36;0.70;;;0.70;;
19285;SDS011;9776;50.798;6.430;2023-03-23T11:21:05;0.75;;;0.75;;
19285;SDS011;9776;50.798;6.430;2023-03-23T11:23:39;0.80;;;0.80;;
19285;SDS011;9776;50.798;6.430;2023-03-23T11:26:10;0.80;;;0.80;;
19285;SDS011;9776;50.798;6.430;2023-03-23T11:28:43;0.60;;;0.60;;
19285;SDS011;9776;50.798;6.430;2023-03-23T11:31:13;0.60;;;0.60;;
19285;SDS011;9776;50.798;6.430;2023-03-23T11:33:46;0.63;;;0.63;;
19285;SDS011;9776;50.798;6.430;2023-03-23T11:36:17;0.70;;;0.70;;
19285;SDS011;9776;50.798;6.430;2023-03-23T11:38:46;0.60;;;0.60;;
19285;SDS011;9776;50.798;6.430;2023-03-23T11:41:16;0.70;;;0.70;;
19285;SDS011;9776;50.798;6.430;2023-03-23T11:43:46;0.60;;;0.60;;
19285;SDS011;9776;50.798;6.430;2023-03-23T11:46:16;0.60;;;0.60;;
19285;SDS011;9776;50.798;6.430;2023-03-23T11:48:50;0.60;;;0.55;;
19285;SDS011;9776;50.798;6.430;2023-03-23T11:51:24;1.25;;;0.70;;
19285;SDS011;9776;50.798;6.430;2023-03-23T11:54:00;1.02;;;0.93;;
19285;SDS011;9776;50.798;6.430;2023-03-23T11:56:35;0.70;;;0.70;;
19285;SDS011;9776;50.798;6.430;2023-03-23T11:59:03;0.73;;;0.73;;
19285;SDS011;9776;50.798;6.430;2023-03-23T12:01:40;0.60;;;0.60;;
19285;SDS011;9776;50.798;6.430;2023-03-23T12:04:19;0.90;;;0.90;;
19285;SDS011;9776;50.798;6.430;2023-03-23T12:07:00;1.00;;;0.95;;
19285;SDS011;9776;50.798;6.430;2023-03-23T12:09:41;1.10;;;1.05;;
19285;SDS011;9776;50.798;6.430;2023-03-23T12:12:15;0.80;;;0.80;;
19285;SDS011;9776;50.798;6.430;2023-03-23T12:14:51;1.33;;;1.23;;
19285;SDS011;9776;50.798;6.430;2023-03-23T12:17:28;0.88;;;0.88;;
19285;SDS011;9776;50.798;6.430;2023-03-23T12:20:13;0.95;;;0.88;;
19285;SDS011;9776;50.798;6.430;2023-03-23T12:22:50;0.80;;;0.80;;
19285;SDS011;9776;50.798;6.430;2023-03-23T12:28:31;1.08;;;1.00;;
19285;SDS011;9776;50.798;6.430;2023-03-23T12:31:07;1.52;;;1.42;;
19285;SDS011;9776;50.798;6.430;2023-03-23T12:33:42;1.40;;;1.30;;
19285;SDS011;9776;50.798;6.430;2023-03-23T12:36:27;1.15;;;1.08;;
19285;SDS011;9776;50.798;6.430;2023-03-23T12:39:12;2.50;;;1.08;;
19285;SDS011;9776;50.798;6.430;2023-03-23T12:42:09;0.98;;;0.93;;
19285;SDS011;9776;50.798;6.430;2023-03-23T12:44:43;1.15;;;1.05;;
19285;SDS011;9776;50.798;6.430;2023-03-23T12:49:58;1.30;;;1.20;;
19285;SDS011;9776;50.798;6.430;2023-03-23T12:52:30;1.10;;;1.08;;
19285;SDS011;9776;50.798;6.430;2023-03-23T12:55:02;2.20;;;1.17;;
19285;SDS011;9776;50.798;6.430;2023-03-23T12:57:35;0.73;;;0.73;;
19285;SDS011;9776;50.798;6.430;2023-03-23T13:00:12;0.80;;;0.70;;
19285;SDS011;9776;50.798;6.430;2023-03-23T13:02:44;0.80;;;0.80;;
19285;SDS011;9776;50.798;6.430;2023-03-23T13:05:26;0.68;;;0.60;;
19285;SDS011;9776;50.798;6.430;2023-03-23T13:07:59;0.80;;;0.80;;
19285;SDS011;9776;50.798;6.430;2023-03-23T13:10:32;0.90;;;0.90;;
19285;SDS011;9776;50.798;6.430;2023-03-23T13:13:03;0.90;;;0.90;;
19285;SDS011;9776;50.798;6.430;2023-03-23T13:15:32;0.80;;;0.80;;
19285;SDS011;9776;50.798;6.430;2023-03-23T13:18:11;0.93;;;0.90;;
19285;SDS011;9776;50.798;6.430;2023-03-23T13:20:53;1.15;;;1.00;;
19285;SDS011;9776;50.798;6.430;2023-03-23T13:23:24;0.90;;;0.90;;
19285;SDS011;9776;50.798;6.430;2023-03-23T13:25:55;1.20;;;1.10;;
19285;SDS011;9776;50.798;6.430;2023-03-23T13:28:27;1.50;;;1.20;;
19285;SDS011;9776;50.798;6.430;2023-03-23T13:30:58;0.98;;;0.98;;
19285;SDS011;9776;50.798;6.430;2023-03-23T13:33:31;1.08;;;0.80;;
19285;SDS011;9776;50.798;6.430;2023-03-23T13:36:04;0.93;;;0.85;;
19285;SDS011;9776;50.798;6.430;2023-03-23T13:38:35;1.38;;;1.00;;
19285;SDS011;9776;50.798;6.430;2023-03-23T13:41:09;1.08;;;1.00;;
19285;SDS011;9776;50.798;6.430;2023-03-23T13:43:40;0.80;;;0.80;;
19285;SDS011;9776;50.798;6.430;2023-03-23T13:46:10;0.93;;;0.90;;
19285;SDS011;9776;50.798;6.430;2023-03-23T13:48:44;1.33;;;0.95;;
19285;SDS011;9776;50.798;6.430;2023-03-23T13:51:24;1.10;;;1.00;;
19285;SDS011;9776;50.798;6.430;2023-03-23T13:54:03;0.75;;;0.75;;
19285;SDS011;9776;50.798;6.430;2023-03-23T13:56:39;0.80;;;0.80;;
19285;SDS011;9776;50.798;6.430;2023-03-23T13:59:12;1.08;;;0.93;;
19285;SDS011;9776;50.798;6.430;2023-03-23T14:01:40;1.88;;;0.90;;
19285;SDS011;9776;50.798;6.430;2023-03-23T14:04:10;0.90;;;0.90;;
19285;SDS011;9776;50.798;6.430;2023-03-23T14:06:40;1.30;;;1.00;;
19285;SDS011;9776;50.798;6.430;2023-03-23T14:09:10;1.20;;;1.10;;
19285;SDS011;9776;50.798;6.430;2023-03-23T14:11:45;1.17;;;1.05;;
19285;SDS011;9776;50.798;6.430;2023-03-23T14:14:20;0.88;;;0.88;;
19285;SDS011;9776;50.798;6.430;2023-03-23T14:16:50;1.25;;;1.15;;
19285;SDS011;9776;50.798;6.430;2023-03-23T14:19:19;1.05;;;0.93;;
19285;SDS011;9776;50.798;6.430;2023-03-23T14:21:50;0.90;;;0.90;;
19285;SDS011;9776;50.798;6.430;2023-03-23T14:24:20;1.10;;;1.00;;
19285;SDS011;9776;50.798;6.430;2023-03-23T14:26:49;1.08;;;0.80;;
19285;SDS011;9776;50.798;6.430;2023-03-23T14:29:20;1.00;;;1.00;;
19285;SDS011;9776;50.798;6.430;2023-03-23T14:31:52;1.23;;;0.90;;
19285;SDS011;9776;50.798;6.430;2023-03-23T14:34:21;0.93;;;0.90;;
19285;SDS011;9776;50.798;6.430;2023-03-23T14:36:51;1.30;;;0.90;;
19285;SDS011;9776;50.798;6.430;2023-03-23T14:39:20;0.80;;;0.80;;
19285;SDS011;9776;50.798;6.430;2023-03-23T14:41:50;1.45;;;1.00;;
19285;SDS011;9776;50.798;6.430;2023-03-23T14:44:22;1.30;;;1.20;;
19285;SDS011;9776;50.798;6.430;2023-03-23T14:46:51;1.70;;;1.20;;
19285;SDS011;9776;50.798;6.430;2023-03-23T14:49:21;1.17;;;1.05;;
19285;SDS011;9776;50.798;6.430;2023-03-23T14:51:54;1.10;;;1.00;;
19285;SDS011;9776;50.798;6.430;2023-03-23T14:54:22;1.20;;;1.10;;
19285;SDS011;9776;50.798;6.430;2023-03-23T14:56:51;1.15;;;0.95;;
19285;SDS011;9776;50.798;6.430;2023-03-23T14:59:17;1.15;;;1.00;;
19285;SDS011;9776;50.798;6.430;2023-03-23T15:01:47;1.58;;;1.02;;
19285;SDS011;9776;50.798;6.430;2023-03-23T15:04:16;1.05;;;1.00;;
19285;SDS011;9776;50.798;6.430;2023-03-23T15:06:45;1.05;;;1.00;;
19285;SDS011;9776;50.798;6.430;2023-03-23T15:09:17;1.00;;;0.90;;
19285;SDS011;9776;50.798;6.430;2023-03-23T15:11:51;1.38;;;1.20;;
19285;SDS011;9776;50.798;6.430;2023-03-23T15:14:22;1.17;;;1.10;;
19285;SDS011;9776;50.798;6.430;2023-03-23T15:16:52;1.00;;;0.90;;
19285;SDS011;9776;50.798;6.430;2023-03-23T15:19:22;1.25;;;1.08;;
19285;SDS011;9776;50.798;6.430;2023-03-23T15:21:52;1.48;;;1.30;;
19285;SDS011;9776;50.798;6.430;2023-03-23T15:24:26;1.40;;;1.30;;
19285;SDS011;9776;50.798;6.430;2023-03-23T15:27:03;1.20;;;1.10;;